sensor_id;sensor_type;location;lat;lon;timestamp;P1;durP1;ratioP1;P2;durP2;ratioP2
26042;SDS011;13818;52.156;5.382;2022-08-21T00:00:19;7.20;;;2.35;;
26042;SDS011;13818;52.156;5.382;2022-08-21T00:02:49;7.07;;;2.60;;
26042;SDS011;13818;52.156;5.382;2022-08-21T00:05:18;6.72;;;2.25;;
26042;SDS011;13818;52.156;5.382;2022-08-21T00:07:45;6.47;;;2.45;;
26042;SDS011;13818;52.156;5.382;2022-08-21T00:10:13;5.30;;;2.25;;
26042;SDS011;13818;52.156;5.382;2022-08-21T00:12:40;8.98;;;2.40;;
26042;SDS011;13818;52.156;5.382;2022-08-21T00:15:08;7.90;;;2.88;;
26042;SDS011;13818;52.156;5.382;2022-08-21T00:17:36;5.75;;;2.85;;
26042;SDS011;13818;52.156;5.382;2022-08-21T00:20:03;5.72;;;2.22;;
26042;SDS011;13818;52.156;5.382;2022-08-21T00:22:33;6.32;;;2.42;;
26042;SDS011;13818;52.156;5.382;2022-08-21T00:25:00;4.65;;;2.33;;
26042;SDS011;13818;52.156;5.382;2022-08-21T00:27:27;9.05;;;2.72;;
26042;SDS011;13818;52.156;5.382;2022-08-21T00:29:54;7.50;;;2.45;;
26042;SDS011;13818;52.156;5.382;2022-08-21T00:32:21;6.57;;;2.90;;
26042;SDS011;13818;52.156;5.382;2022-08-21T00:34:48;10.70;;;2.40;;
26042;SDS011;13818;52.156;5.382;2022-08-21T00:37:14;9.07;;;2.75;;
26042;SDS011;13818;52.156;5.382;2022-08-21T00:39:42;9.10;;;2.88;;
26042;SDS011;13818;52.156;5.382;2022-08-21T00:42:09;7.88;;;2.80;;
26042;SDS011;13818;52.156;5.382;2022-08-21T00:44:39;6.03;;;2.42;;
26042;SDS011;13818;52.156;5.382;2022-08-21T00:47:06;6.47;;;2.03;;
26042;SDS011;13818;52.156;5.382;2022-08-21T00:49:33;7.18;;;2.55;;
26042;SDS011;13818;52.156;5.382;2022-08-21T00:52:00;6.07;;;2.30;;
26042;SDS011;13818;52.156;5.382;2022-08-21T00:54:28;9.30;;;2.13;;
26042;SDS011;13818;52.156;5.382;2022-08-21T00:56:59;6.43;;;2.70;;
26042;SDS011;13818;52.156;5.382;2022-08-21T00:59:28;7.18;;;2.10;;
26042;SDS011;13818;52.156;5.382;2022-08-21T01:01:58;7.93;;;2.63;;
26042;SDS011;13818;52.156;5.382;2022-08-21T01:04:25;8.15;;;2.45;;
26042;SDS011;13818;52.156;5.382;2022-08-21T01:06:52;9.38;;;2.40;;
26042;SDS011;13818;52.156;5.382;2022-08-21T01:09:20;6.20;;;2.30;;
26042;SDS011;13818;52.156;5.382;2022-08-21T01:11:46;5.78;;;2.20;;
26042;SDS011;13818;52.156;5.382;2022-08-21T01:14:14;5.88;;;2.20;;
26042;SDS011;13818;52.156;5.382;2022-08-21T01:16:44;7.63;;;2.15;;
26042;SDS011;13818;52.156;5.382;2022-08-21T01:19:14;4.72;;;2.05;;
26042;SDS011;13818;52.156;5.382;2022-08-21T01:21:44;4.38;;;2.10;;
26042;SDS011;13818;52.156;5.382;2022-08-21T01:24:11;6.07;;;2.30;;
26042;SDS011;13818;52.156;5.382;2022-08-21T01:26:38;4.40;;;2.28;;
26042;SDS011;13818;52.156;5.382;2022-08-21T01:29:07;5.72;;;2.40;;
26042;SDS011;13818;52.156;5.382;2022-08-21T01:31:38;5.78;;;2.47;;
26042;SDS011;13818;52.156;5.382;2022-08-21T01:34:05;6.25;;;2.55;;
26042;SDS011;13818;52.156;5.382;2022-08-21T01:36:32;4.47;;;2.15;;
26042;SDS011;13818;52.156;5.382;2022-08-21T01:39:00;7.20;;;2.72;;
26042;SDS011;13818;52.156;5.382;2022-08-21T01:41:26;7.05;;;2.40;;
26042;SDS011;13818;52.156;5.382;2022-08-21T01:43:53;5.32;;;2.33;;
26042;SDS011;13818;52.156;5.382;2022-08-21T01:46:20;9.27;;;2.55;;
26042;SDS011;13818;52.156;5.382;2022-08-21T01:48:46;6.13;;;2.38;;
26042;SDS011;13818;52.156;5.382;2022-08-21T01:51:12;6.60;;;3.25;;
26042;SDS011;13818;52.156;5.382;2022-08-21T01:53:39;8.82;;;3.15;;
26042;SDS011;13818;52.156;5.382;2022-08-21T01:56:08;4.93;;;2.55;;
26042;SDS011;13818;52.156;5.382;2022-08-21T01:58:36;8.02;;;2.60;;
26042;SDS011;13818;52.156;5.382;2022-08-21T02:01:03;5.78;;;2.38;;
26042;SDS011;13818;52.156;5.382;2022-08-21T02:03:30;7.50;;;3.17;;
26042;SDS011;13818;52.156;5.382;2022-08-21T02:05:57;7.95;;;2.90;;
26042;SDS011;13818;52.156;5.382;2022-08-21T02:08:23;7.05;;;2.53;;
26042;SDS011;13818;52.156;5.382;2022-08-21T02:10:50;8.30;;;2.60;;
26042;SDS011;13818;52.156;5.382;2022-08-21T02:13:18;5.95;;;2.60;;
26042;SDS011;13818;52.156;5.382;2022-08-21T02:15:45;9.25;;;2.65;;
26042;SDS011;13818;52.156;5.382;2022-08-21T02:18:12;8.43;;;2.80;;
26042;SDS011;13818;52.156;5.382;2022-08-21T02:20:40;7.50;;;3.38;;
26042;SDS011;13818;52.156;5.382;2022-08-21T02:23:08;6.47;;;2.70;;
26042;SDS011;13818;52.156;5.382;2022-08-21T02:25:36;6.22;;;3.00;;
26042;SDS011;13818;52.156;5.382;2022-08-21T02:28:04;6.93;;;2.50;;
26042;SDS011;13818;52.156;5.382;2022-08-21T02:30:34;6.35;;;2.78;;
26042;SDS011;13818;52.156;5.382;2022-08-21T02:33:03;8.07;;;3.10;;
26042;SDS011;13818;52.156;5.382;2022-08-21T02:35:29;9.27;;;2.97;;
26042;SDS011;13818;52.156;5.382;2022-08-21T02:37:57;5.35;;;2.53;;
26042;SDS011;13818;52.156;5.382;2022-08-21T02:40:26;5.45;;;2.65;;
26042;SDS011;13818;52.156;5.382;2022-08-21T02:42:55;11.73;;;3.40;;
26042;SDS011;13818;52.156;5.382;2022-08-21T02:45:22;7.25;;;3.40;;
26042;SDS011;13818;52.156;5.382;2022-08-21T02:47:51;7.65;;;2.90;;
26042;SDS011;13818;52.156;5.382;2022-08-21T02:50:19;5.93;;;2.60;;
26042;SDS011;13818;52.156;5.382;2022-08-21T02:52:48;9.90;;;3.25;;
26042;SDS011;13818;52.156;5.382;2022-08-21T02:55:16;7.28;;;3.08;;
26042;SDS011;13818;52.156;5.382;2022-08-21T02:57:42;9.70;;;3.13;;
26042;SDS011;13818;52.156;5.382;2022-08-21T03:00:09;8.98;;;3.05;;
26042;SDS011;13818;52.156;5.382;2022-08-21T03:02:37;9.32;;;3.70;;
26042;SDS011;13818;52.156;5.382;2022-08-21T03:05:05;10.65;;;3.65;;
26042;SDS011;13818;52.156;5.382;2022-08-21T03:07:33;8.82;;;3.17;;
26042;SDS011;13818;52.156;5.382;2022-08-21T03:09:59;9.05;;;3.60;;
26042;SDS011;13818;52.156;5.382;2022-08-21T03:12:26;9.43;;;3.05;;
26042;SDS011;13818;52.156;5.382;2022-08-21T03:14:52;5.13;;;2.80;;
26042;SDS011;13818;52.156;5.382;2022-08-21T03:17:19;8.55;;;3.65;;
26042;SDS011;13818;52.156;5.382;2022-08-21T03:19:45;7.88;;;3.42;;
26042;SDS011;13818;52.156;5.382;2022-08-21T03:22:13;8.65;;;3.05;;
26042;SDS011;13818;52.156;5.382;2022-08-21T03:24:39;6.30;;;2.95;;
26042;SDS011;13818;52.156;5.382;2022-08-21T03:27:06;9.30;;;3.65;;
26042;SDS011;13818;52.156;5.382;2022-08-21T03:29:32;8.50;;;3.00;;
26042;SDS011;13818;52.156;5.382;2022-08-21T03:31:58;9.50;;;3.25;;
26042;SDS011;13818;52.156;5.382;2022-08-21T03:34:25;8.75;;;3.20;;
26042;SDS011;13818;52.156;5.382;2022-08-21T03:36:51;7.90;;;2.88;;
26042;SDS011;13818;52.156;5.382;2022-08-21T03:39:19;7.45;;;3.67;;
26042;SDS011;13818;52.156;5.382;2022-08-21T03:41:46;11.52;;;2.80;;
26042;SDS011;13818;52.156;5.382;2022-08-21T03:44:13;9.52;;;3.40;;
26042;SDS011;13818;52.156;5.382;2022-08-21T03:46:40;8.15;;;3.78;;
26042;SDS011;13818;52.156;5.382;2022-08-21T03:49:06;7.88;;;3.45;;
26042;SDS011;13818;52.156;5.382;2022-08-21T03:51:33;10.57;;;4.30;;
26042;SDS011;13818;52.156;5.382;2022-08-21T03:54:00;12.90;;;3.40;;
26042;SDS011;13818;52.156;5.382;2022-08-21T03:56:28;7.13;;;3.40;;
26042;SDS011;13818;52.156;5.382;2022-08-21T03:58:54;8.50;;;3.42;;
26042;SDS011;13818;52.156;5.382;2022-08-21T04:01:21;7.68;;;3.38;;
26042;SDS011;13818;52.156;5.382;2022-08-21T04:03:48;5.90;;;3.13;;
26042;SDS011;13818;52.156;5.382;2022-08-21T04:06:14;12.60;;;3.70;;
26042;SDS011;13818;52.156;5.382;2022-08-21T04:08:40;8.30;;;3.38;;
26042;SDS011;13818;52.156;5.382;2022-08-21T04:11:07;10.35;;;3.45;;
26042;SDS011;13818;52.156;5.382;2022-08-21T04:13:36;10.75;;;3.53;;
26042;SDS011;13818;52.156;5.382;2022-08-21T04:16:04;13.52;;;3.97;;
26042;SDS011;13818;52.156;5.382;2022-08-21T04:18:30;8.93;;;3.90;;
26042;SDS011;13818;52.156;5.382;2022-08-21T04:20:57;8.95;;;4.13;;
26042;SDS011;13818;52.156;5.382;2022-08-21T04:23:25;10.05;;;3.72;;
26042;SDS011;13818;52.156;5.382;2022-08-21T04:25:52;11.75;;;3.75;;
26042;SDS011;13818;52.156;5.382;2022-08-21T04:28:20;10.57;;;3.67;;
26042;SDS011;13818;52.156;5.382;2022-08-21T04:30:48;8.27;;;3.50;;
26042;SDS011;13818;52.156;5.382;2022-08-21T04:35:43;11.77;;;3.83;;
26042;SDS011;13818;52.156;5.382;2022-08-21T04:38:10;12.45;;;4.18;;
26042;SDS011;13818;52.156;5.382;2022-08-21T04:40:36;9.93;;;4.32;;
26042;SDS011;13818;52.156;5.382;2022-08-21T04:43:03;12.70;;;4.00;;
26042;SDS011;13818;52.156;5.382;2022-08-21T04:45:34;11.55;;;4.20;;
26042;SDS011;13818;52.156;5.382;2022-08-21T04:48:05;8.13;;;4.30;;
26042;SDS011;13818;52.156;5.382;2022-08-21T04:50:35;9.60;;;4.05;;
26042;SDS011;13818;52.156;5.382;2022-08-21T04:53:05;7.50;;;3.92;;
26042;SDS011;13818;52.156;5.382;2022-08-21T04:55:34;9.32;;;4.57;;
26042;SDS011;13818;52.156;5.382;2022-08-21T04:58:02;9.45;;;4.15;;
26042;SDS011;13818;52.156;5.382;2022-08-21T05:00:31;9.63;;;4.13;;
26042;SDS011;13818;52.156;5.382;2022-08-21T05:02:57;11.77;;;4.53;;
26042;SDS011;13818;52.156;5.382;2022-08-21T05:05:28;10.40;;;3.63;;
26042;SDS011;13818;52.156;5.382;2022-08-21T05:07:55;10.43;;;3.38;;
26042;SDS011;13818;52.156;5.382;2022-08-21T05:10:23;8.80;;;3.88;;
26042;SDS011;13818;52.156;5.382;2022-08-21T05:12:50;11.48;;;4.35;;
26042;SDS011;13818;52.156;5.382;2022-08-21T05:15:17;9.52;;;3.70;;
26042;SDS011;13818;52.156;5.382;2022-08-21T05:17:44;11.45;;;3.75;;
26042;SDS011;13818;52.156;5.382;2022-08-21T05:20:12;8.60;;;3.20;;
26042;SDS011;13818;52.156;5.382;2022-08-21T05:22:41;9.25;;;3.75;;
26042;SDS011;13818;52.156;5.382;2022-08-21T05:25:08;7.13;;;3.23;;
26042;SDS011;13818;52.156;5.382;2022-08-21T05:27:35;6.57;;;2.83;;
26042;SDS011;13818;52.156;5.382;2022-08-21T05:30:02;7.18;;;3.05;;
26042;SDS011;13818;52.156;5.382;2022-08-21T05:32:30;7.05;;;2.65;;
26042;SDS011;13818;52.156;5.382;2022-08-21T05:34:56;7.72;;;3.13;;
26042;SDS011;13818;52.156;5.382;2022-08-21T05:37:22;6.35;;;2.97;;
26042;SDS011;13818;52.156;5.382;2022-08-21T05:39:50;12.02;;;3.13;;
26042;SDS011;13818;52.156;5.382;2022-08-21T05:42:17;11.27;;;2.97;;
26042;SDS011;13818;52.156;5.382;2022-08-21T05:44:43;7.32;;;2.70;;
26042;SDS011;13818;52.156;5.382;2022-08-21T05:47:10;6.20;;;2.60;;
26042;SDS011;13818;52.156;5.382;2022-08-21T05:49:37;8.65;;;2.65;;
26042;SDS011;13818;52.156;5.382;2022-08-21T05:52:04;8.20;;;2.97;;
26042;SDS011;13818;52.156;5.382;2022-08-21T05:54:31;10.70;;;2.67;;
26042;SDS011;13818;52.156;5.382;2022-08-21T05:56:59;9.48;;;2.90;;
26042;SDS011;13818;52.156;5.382;2022-08-21T05:59:25;6.78;;;2.58;;
26042;SDS011;13818;52.156;5.382;2022-08-21T06:01:52;9.65;;;3.13;;
26042;SDS011;13818;52.156;5.382;2022-08-21T06:04:19;9.60;;;3.00;;
26042;SDS011;13818;52.156;5.382;2022-08-21T06:06:45;6.45;;;2.75;;
26042;SDS011;13818;52.156;5.382;2022-08-21T06:09:13;6.65;;;2.45;;
26042;SDS011;13818;52.156;5.382;2022-08-21T06:11:39;5.60;;;2.40;;
26042;SDS011;13818;52.156;5.382;2022-08-21T06:14:07;8.38;;;2.50;;
26042;SDS011;13818;52.156;5.382;2022-08-21T06:16:34;6.32;;;3.05;;
26042;SDS011;13818;52.156;5.382;2022-08-21T06:19:01;6.38;;;2.50;;
26042;SDS011;13818;52.156;5.382;2022-08-21T06:21:27;8.45;;;2.47;;
26042;SDS011;13818;52.156;5.382;2022-08-21T06:23:54;6.05;;;2.28;;
26042;SDS011;13818;52.156;5.382;2022-08-21T06:26:20;8.98;;;2.70;;
26042;SDS011;13818;52.156;5.382;2022-08-21T06:28:47;7.32;;;2.40;;
26042;SDS011;13818;52.156;5.382;2022-08-21T06:31:15;6.68;;;2.70;;
26042;SDS011;13818;52.156;5.382;2022-08-21T06:33:43;9.68;;;2.28;;
26042;SDS011;13818;52.156;5.382;2022-08-21T06:36:10;9.77;;;2.60;;
26042;SDS011;13818;52.156;5.382;2022-08-21T06:38:36;9.02;;;2.42;;
26042;SDS011;13818;52.156;5.382;2022-08-21T06:41:03;5.75;;;2.05;;
26042;SDS011;13818;52.156;5.382;2022-08-21T06:43:31;9.93;;;2.30;;
26042;SDS011;13818;52.156;5.382;2022-08-21T06:45:57;6.63;;;2.80;;
26042;SDS011;13818;52.156;5.382;2022-08-21T06:48:25;8.25;;;2.22;;
26042;SDS011;13818;52.156;5.382;2022-08-21T06:50:53;9.23;;;2.53;;
26042;SDS011;13818;52.156;5.382;2022-08-21T06:53:21;9.93;;;2.28;;
26042;SDS011;13818;52.156;5.382;2022-08-21T06:55:48;7.75;;;2.63;;
26042;SDS011;13818;52.156;5.382;2022-08-21T06:58:15;9.65;;;2.75;;
26042;SDS011;13818;52.156;5.382;2022-08-21T07:00:44;12.52;;;2.88;;
26042;SDS011;13818;52.156;5.382;2022-08-21T07:03:19;7.75;;;2.85;;
26042;SDS011;13818;52.156;5.382;2022-08-21T07:05:47;12.48;;;3.33;;
26042;SDS011;13818;52.156;5.382;2022-08-21T07:08:14;10.07;;;2.42;;
26042;SDS011;13818;52.156;5.382;2022-08-21T07:10:41;7.05;;;1.95;;
26042;SDS011;13818;52.156;5.382;2022-08-21T07:13:08;9.32;;;2.42;;
26042;SDS011;13818;52.156;5.382;2022-08-21T07:15:35;9.52;;;3.00;;
26042;SDS011;13818;52.156;5.382;2022-08-21T07:18:01;7.28;;;2.53;;
26042;SDS011;13818;52.156;5.382;2022-08-21T07:20:29;10.18;;;2.20;;
26042;SDS011;13818;52.156;5.382;2022-08-21T07:22:58;7.03;;;1.92;;
26042;SDS011;13818;52.156;5.382;2022-08-21T07:25:27;11.48;;;2.25;;
26042;SDS011;13818;52.156;5.382;2022-08-21T07:27:53;9.15;;;2.15;;
26042;SDS011;13818;52.156;5.382;2022-08-21T07:30:20;6.38;;;2.00;;
26042;SDS011;13818;52.156;5.382;2022-08-21T07:32:47;5.40;;;2.10;;
26042;SDS011;13818;52.156;5.382;2022-08-21T07:35:15;9.77;;;2.20;;
26042;SDS011;13818;52.156;5.382;2022-08-21T07:37:42;5.88;;;1.95;;
26042;SDS011;13818;52.156;5.382;2022-08-21T07:40:10;7.55;;;2.20;;
26042;SDS011;13818;52.156;5.382;2022-08-21T07:45:06;9.25;;;2.58;;
26042;SDS011;13818;52.156;5.382;2022-08-21T07:47:33;11.55;;;2.35;;
26042;SDS011;13818;52.156;5.382;2022-08-21T07:50:00;9.32;;;2.75;;
26042;SDS011;13818;52.156;5.382;2022-08-21T07:52:26;9.80;;;2.85;;
26042;SDS011;13818;52.156;5.382;2022-08-21T07:54:53;8.80;;;2.20;;
26042;SDS011;13818;52.156;5.382;2022-08-21T07:57:20;5.70;;;2.15;;
26042;SDS011;13818;52.156;5.382;2022-08-21T07:59:47;9.88;;;2.35;;
26042;SDS011;13818;52.156;5.382;2022-08-21T08:02:21;7.47;;;2.30;;
26042;SDS011;13818;52.156;5.382;2022-08-21T08:04:48;7.50;;;2.30;;
26042;SDS011;13818;52.156;5.382;2022-08-21T08:07:15;12.02;;;2.25;;
26042;SDS011;13818;52.156;5.382;2022-08-21T08:09:42;4.93;;;2.13;;
26042;SDS011;13818;52.156;5.382;2022-08-21T08:12:09;11.50;;;2.20;;
26042;SDS011;13818;52.156;5.382;2022-08-21T08:14:37;8.05;;;2.22;;
26042;SDS011;13818;52.156;5.382;2022-08-21T08:17:03;5.38;;;1.90;;
26042;SDS011;13818;52.156;5.382;2022-08-21T08:19:30;7.93;;;1.88;;
26042;SDS011;13818;52.156;5.382;2022-08-21T08:21:56;8.32;;;2.25;;
26042;SDS011;13818;52.156;5.382;2022-08-21T08:24:23;9.93;;;2.40;;
26042;SDS011;13818;52.156;5.382;2022-08-21T08:26:49;10.88;;;2.20;;
26042;SDS011;13818;52.156;5.382;2022-08-21T08:29:15;7.28;;;2.22;;
26042;SDS011;13818;52.156;5.382;2022-08-21T08:31:43;11.43;;;2.70;;
26042;SDS011;13818;52.156;5.382;2022-08-21T08:34:10;10.15;;;2.75;;
26042;SDS011;13818;52.156;5.382;2022-08-21T08:36:36;11.52;;;2.55;;
26042;SDS011;13818;52.156;5.382;2022-08-21T08:39:04;9.73;;;2.15;;
26042;SDS011;13818;52.156;5.382;2022-08-21T08:41:31;8.65;;;2.25;;
26042;SDS011;13818;52.156;5.382;2022-08-21T08:44:00;6.53;;;1.90;;
26042;SDS011;13818;52.156;5.382;2022-08-21T08:46:30;9.07;;;2.55;;
26042;SDS011;13818;52.156;5.382;2022-08-21T08:49:08;10.90;;;1.90;;
26042;SDS011;13818;52.156;5.382;2022-08-21T08:51:42;6.40;;;1.70;;
26042;SDS011;13818;52.156;5.382;2022-08-21T08:54:13;7.47;;;2.35;;
26042;SDS011;13818;52.156;5.382;2022-08-21T08:56:57;10.98;;;1.90;;
26042;SDS011;13818;52.156;5.382;2022-08-21T08:59:25;8.00;;;2.05;;
26042;SDS011;13818;52.156;5.382;2022-08-21T09:01:55;7.80;;;2.35;;
26042;SDS011;13818;52.156;5.382;2022-08-21T09:04:24;12.35;;;2.65;;
26042;SDS011;13818;52.156;5.382;2022-08-21T09:06:55;9.73;;;2.10;;
26042;SDS011;13818;52.156;5.382;2022-08-21T09:09:34;6.97;;;1.98;;
26042;SDS011;13818;52.156;5.382;2022-08-21T09:12:12;9.05;;;2.13;;
26042;SDS011;13818;52.156;5.382;2022-08-21T09:14:47;11.75;;;1.95;;
26042;SDS011;13818;52.156;5.382;2022-08-21T09:17:24;5.60;;;1.83;;
26042;SDS011;13818;52.156;5.382;2022-08-21T09:20:10;8.25;;;1.75;;
26042;SDS011;13818;52.156;5.382;2022-08-21T09:22:44;11.95;;;2.17;;
26042;SDS011;13818;52.156;5.382;2022-08-21T09:25:24;7.78;;;1.75;;
26042;SDS011;13818;52.156;5.382;2022-08-21T09:27:53;4.90;;;1.70;;
26042;SDS011;13818;52.156;5.382;2022-08-21T09:30:23;8.90;;;1.50;;
26042;SDS011;13818;52.156;5.382;2022-08-21T09:32:52;5.65;;;1.25;;
26042;SDS011;13818;52.156;5.382;2022-08-21T09:35:21;8.32;;;2.00;;
26042;SDS011;13818;52.156;5.382;2022-08-21T09:37:51;7.70;;;1.67;;
26042;SDS011;13818;52.156;5.382;2022-08-21T09:40:23;7.63;;;2.15;;
26042;SDS011;13818;52.156;5.382;2022-08-21T09:42:57;10.48;;;2.25;;
26042;SDS011;13818;52.156;5.382;2022-08-21T09:45:25;8.35;;;2.05;;
26042;SDS011;13818;52.156;5.382;2022-08-21T09:47:52;7.82;;;2.15;;
26042;SDS011;13818;52.156;5.382;2022-08-21T09:50:22;8.05;;;1.60;;
26042;SDS011;13818;52.156;5.382;2022-08-21T09:52:54;7.03;;;1.50;;
26042;SDS011;13818;52.156;5.382;2022-08-21T09:55:26;8.32;;;1.27;;
26042;SDS011;13818;52.156;5.382;2022-08-21T09:58:16;5.82;;;1.25;;
26042;SDS011;13818;52.156;5.382;2022-08-21T10:00:44;8.68;;;1.85;;
26042;SDS011;13818;52.156;5.382;2022-08-21T10:03:13;6.28;;;1.63;;
26042;SDS011;13818;52.156;5.382;2022-08-21T10:05:52;7.32;;;1.95;;
26042;SDS011;13818;52.156;5.382;2022-08-21T10:08:21;10.80;;;1.70;;
26042;SDS011;13818;52.156;5.382;2022-08-21T10:10:50;7.78;;;2.42;;
26042;SDS011;13818;52.156;5.382;2022-08-21T10:15:51;7.18;;;1.50;;
26042;SDS011;13818;52.156;5.382;2022-08-21T10:18:33;6.05;;;1.30;;
26042;SDS011;13818;52.156;5.382;2022-08-21T10:21:07;6.10;;;1.88;;
26042;SDS011;13818;52.156;5.382;2022-08-21T10:23:43;8.07;;;1.73;;
26042;SDS011;13818;52.156;5.382;2022-08-21T10:26:20;8.65;;;1.55;;
26042;SDS011;13818;52.156;5.382;2022-08-21T10:28:56;8.52;;;2.00;;
26042;SDS011;13818;52.156;5.382;2022-08-21T10:31:31;4.75;;;1.40;;
26042;SDS011;13818;52.156;5.382;2022-08-21T10:34:07;5.93;;;1.45;;
26042;SDS011;13818;52.156;5.382;2022-08-21T10:36:49;8.35;;;1.20;;
26042;SDS011;13818;52.156;5.382;2022-08-21T10:39:34;11.85;;;1.60;;
26042;SDS011;13818;52.156;5.382;2022-08-21T10:42:06;5.78;;;1.42;;
26042;SDS011;13818;52.156;5.382;2022-08-21T10:44:45;5.93;;;1.10;;
26042;SDS011;13818;52.156;5.382;2022-08-21T10:47:23;5.80;;;1.52;;
26042;SDS011;13818;52.156;5.382;2022-08-21T10:49:56;6.30;;;1.58;;
26042;SDS011;13818;52.156;5.382;2022-08-21T10:52:41;5.40;;;1.50;;
26042;SDS011;13818;52.156;5.382;2022-08-21T10:55:18;4.57;;;1.30;;
26042;SDS011;13818;52.156;5.382;2022-08-21T11:00:16;5.00;;;1.23;;
26042;SDS011;13818;52.156;5.382;2022-08-21T11:02:46;8.13;;;1.70;;
26042;SDS011;13818;52.156;5.382;2022-08-21T11:05:19;4.97;;;1.45;;
26042;SDS011;13818;52.156;5.382;2022-08-21T11:07:53;6.70;;;1.90;;
26042;SDS011;13818;52.156;5.382;2022-08-21T11:10:23;3.17;;;1.60;;
26042;SDS011;13818;52.156;5.382;2022-08-21T11:12:52;5.20;;;0.95;;
26042;SDS011;13818;52.156;5.382;2022-08-21T11:15:27;5.78;;;1.20;;
26042;SDS011;13818;52.156;5.382;2022-08-21T11:18:02;6.68;;;1.30;;
26042;SDS011;13818;52.156;5.382;2022-08-21T11:20:43;5.53;;;1.40;;
26042;SDS011;13818;52.156;5.382;2022-08-21T11:23:18;7.05;;;1.50;;
26042;SDS011;13818;52.156;5.382;2022-08-21T11:25:50;6.47;;;1.75;;
26042;SDS011;13818;52.156;5.382;2022-08-21T11:28:21;4.80;;;1.35;;
26042;SDS011;13818;52.156;5.382;2022-08-21T11:30:55;3.85;;;1.33;;
26042;SDS011;13818;52.156;5.382;2022-08-21T11:33:31;6.93;;;1.50;;
26042;SDS011;13818;52.156;5.382;2022-08-21T11:36:09;9.93;;;1.92;;
26042;SDS011;13818;52.156;5.382;2022-08-21T11:38:51;5.13;;;1.60;;
26042;SDS011;13818;52.156;5.382;2022-08-21T11:41:28;4.07;;;1.17;;
26042;SDS011;13818;52.156;5.382;2022-08-21T11:44:01;4.90;;;1.63;;
26042;SDS011;13818;52.156;5.382;2022-08-21T11:46:41;5.43;;;2.10;;
26042;SDS011;13818;52.156;5.382;2022-08-21T11:49:23;5.05;;;2.35;;
26042;SDS011;13818;52.156;5.382;2022-08-21T11:52:12;6.90;;;1.73;;
26042;SDS011;13818;52.156;5.382;2022-08-21T11:54:44;7.93;;;1.70;;
26042;SDS011;13818;52.156;5.382;2022-08-21T11:57:17;5.68;;;2.00;;
26042;SDS011;13818;52.156;5.382;2022-08-21T11:59:48;2.80;;;1.80;;
26042;SDS011;13818;52.156;5.382;2022-08-21T12:02:20;5.15;;;1.85;;
26042;SDS011;13818;52.156;5.382;2022-08-21T12:04:49;10.63;;;2.10;;
26042;SDS011;13818;52.156;5.382;2022-08-21T12:07:29;10.77;;;2.90;;
26042;SDS011;13818;52.156;5.382;2022-08-21T12:10:00;9.80;;;2.03;;
26042;SDS011;13818;52.156;5.382;2022-08-21T12:12:31;9.70;;;2.00;;
26042;SDS011;13818;52.156;5.382;2022-08-21T12:15:16;5.72;;;1.85;;
26042;SDS011;13818;52.156;5.382;2022-08-21T12:17:52;3.88;;;1.88;;
26042;SDS011;13818;52.156;5.382;2022-08-21T12:20:34;7.45;;;1.73;;
26042;SDS011;13818;52.156;5.382;2022-08-21T12:23:05;7.80;;;1.85;;
26042;SDS011;13818;52.156;5.382;2022-08-21T12:25:44;5.85;;;1.77;;
26042;SDS011;13818;52.156;5.382;2022-08-21T12:28:14;6.25;;;1.55;;
26042;SDS011;13818;52.156;5.382;2022-08-21T12:30:47;5.22;;;1.52;;
26042;SDS011;13818;52.156;5.382;2022-08-21T12:33:19;9.10;;;1.90;;
26042;SDS011;13818;52.156;5.382;2022-08-21T12:35:49;5.30;;;1.60;;
26042;SDS011;13818;52.156;5.382;2022-08-21T12:38:20;4.57;;;1.40;;
26042;SDS011;13818;52.156;5.382;2022-08-21T12:40:54;5.38;;;1.67;;
26042;SDS011;13818;52.156;5.382;2022-08-21T12:43:27;5.53;;;1.45;;
26042;SDS011;13818;52.156;5.382;2022-08-21T12:45:57;4.72;;;1.30;;
26042;SDS011;13818;52.156;5.382;2022-08-21T12:48:26;7.95;;;1.38;;
26042;SDS011;13818;52.156;5.382;2022-08-21T12:50:57;5.57;;;2.13;;
26042;SDS011;13818;52.156;5.382;2022-08-21T12:53:32;6.72;;;2.25;;
26042;SDS011;13818;52.156;5.382;2022-08-21T12:56:03;5.25;;;1.58;;
26042;SDS011;13818;52.156;5.382;2022-08-21T12:58:34;5.13;;;1.77;;
26042;SDS011;13818;52.156;5.382;2022-08-21T13:01:02;6.60;;;1.58;;
26042;SDS011;13818;52.156;5.382;2022-08-21T13:03:33;6.30;;;1.58;;
26042;SDS011;13818;52.156;5.382;2022-08-21T13:06:02;4.18;;;1.33;;
26042;SDS011;13818;52.156;5.382;2022-08-21T13:08:30;9.07;;;1.35;;
26042;SDS011;13818;52.156;5.382;2022-08-21T13:11:04;7.38;;;1.30;;
26042;SDS011;13818;52.156;5.382;2022-08-21T13:13:32;8.10;;;1.65;;
26042;SDS011;13818;52.156;5.382;2022-08-21T13:16:02;3.67;;;1.30;;
26042;SDS011;13818;52.156;5.382;2022-08-21T13:18:31;10.30;;;2.25;;
26042;SDS011;13818;52.156;5.382;2022-08-21T13:21:05;9.90;;;2.78;;
26042;SDS011;13818;52.156;5.382;2022-08-21T13:23:33;6.60;;;1.30;;
26042;SDS011;13818;52.156;5.382;2022-08-21T13:26:01;4.93;;;1.50;;
26042;SDS011;13818;52.156;5.382;2022-08-21T13:28:40;8.30;;;1.40;;
26042;SDS011;13818;52.156;5.382;2022-08-21T13:31:07;7.00;;;1.77;;
26042;SDS011;13818;52.156;5.382;2022-08-21T13:33:36;7.80;;;1.40;;
26042;SDS011;13818;52.156;5.382;2022-08-21T13:36:07;4.60;;;1.42;;
26042;SDS011;13818;52.156;5.382;2022-08-21T13:38:37;8.57;;;1.65;;
26042;SDS011;13818;52.156;5.382;2022-08-21T13:41:09;6.43;;;2.20;;
26042;SDS011;13818;52.156;5.382;2022-08-21T13:43:45;5.03;;;1.38;;
26042;SDS011;13818;52.156;5.382;2022-08-21T13:46:15;8.82;;;2.28;;
26042;SDS011;13818;52.156;5.382;2022-08-21T13:48:43;5.22;;;1.33;;
26042;SDS011;13818;52.156;5.382;2022-08-21T13:51:10;6.25;;;1.58;;
26042;SDS011;13818;52.156;5.382;2022-08-21T13:53:44;5.00;;;1.73;;
26042;SDS011;13818;52.156;5.382;2022-08-21T13:56:26;5.88;;;1.42;;
26042;SDS011;13818;52.156;5.382;2022-08-21T13:58:56;6.18;;;1.95;;
26042;SDS011;13818;52.156;5.382;2022-08-21T14:01:25;7.07;;;1.25;;
26042;SDS011;13818;52.156;5.382;2022-08-21T14:03:55;4.20;;;1.00;;
26042;SDS011;13818;52.156;5.382;2022-08-21T14:06:25;6.65;;;1.50;;
26042;SDS011;13818;52.156;5.382;2022-08-21T14:08:54;9.43;;;1.38;;
26042;SDS011;13818;52.156;5.382;2022-08-21T14:11:23;7.35;;;1.55;;
26042;SDS011;13818;52.156;5.382;2022-08-21T14:13:55;7.38;;;1.42;;
26042;SDS011;13818;52.156;5.382;2022-08-21T14:16:27;8.23;;;1.45;;
26042;SDS011;13818;52.156;5.382;2022-08-21T14:19:07;7.70;;;1.90;;
26042;SDS011;13818;52.156;5.382;2022-08-21T14:21:36;8.20;;;1.73;;
26042;SDS011;13818;52.156;5.382;2022-08-21T14:24:08;4.40;;;1.50;;
26042;SDS011;13818;52.156;5.382;2022-08-21T14:26:43;9.43;;;2.03;;
26042;SDS011;13818;52.156;5.382;2022-08-21T14:29:15;5.07;;;1.52;;
26042;SDS011;13818;52.156;5.382;2022-08-21T14:31:43;7.93;;;1.67;;
26042;SDS011;13818;52.156;5.382;2022-08-21T14:34:16;5.15;;;1.77;;
26042;SDS011;13818;52.156;5.382;2022-08-21T14:36:43;6.00;;;1.40;;
26042;SDS011;13818;52.156;5.382;2022-08-21T14:39:09;6.60;;;1.48;;
26042;SDS011;13818;52.156;5.382;2022-08-21T14:41:36;3.65;;;1.27;;
26042;SDS011;13818;52.156;5.382;2022-08-21T14:44:03;6.90;;;1.55;;
26042;SDS011;13818;52.156;5.382;2022-08-21T14:46:32;3.72;;;1.45;;
26042;SDS011;13818;52.156;5.382;2022-08-21T14:49:00;4.18;;;1.20;;
26042;SDS011;13818;52.156;5.382;2022-08-21T14:51:26;5.57;;;1.70;;
26042;SDS011;13818;52.156;5.382;2022-08-21T14:53:53;8.40;;;1.40;;
26042;SDS011;13818;52.156;5.382;2022-08-21T14:56:19;4.63;;;1.38;;
26042;SDS011;13818;52.156;5.382;2022-08-21T14:58:47;6.63;;;1.17;;
26042;SDS011;13818;52.156;5.382;2022-08-21T15:01:16;4.93;;;1.20;;
26042;SDS011;13818;52.156;5.382;2022-08-21T15:03:46;3.00;;;1.08;;
26042;SDS011;13818;52.156;5.382;2022-08-21T15:06:13;7.90;;;1.77;;
26042;SDS011;13818;52.156;5.382;2022-08-21T15:08:40;6.55;;;1.77;;